sensor_id;sensor_type;location;lat;lon;timestamp;temperature;humidity
20125;DHT22;10223;50.862;4.360;2022-08-18T00:02:05;21.30;99.90
20125;DHT22;10223;50.862;4.360;2022-08-18T00:04:34;21.30;99.90
20125;DHT22;10223;50.862;4.360;2022-08-18T00:07:04;21.20;99.90
20125;DHT22;10223;50.862;4.360;2022-08-18T00:09:33;21.30;99.90
20125;DHT22;10223;50.862;4.360;2022-08-18T00:12:00;21.40;99.90
20125;DHT22;10223;50.862;4.360;2022-08-18T00:14:28;21.10;99.90
20125;DHT22;10223;50.862;4.360;2022-08-18T00:16:55;20.90;99.90
20125;DHT22;10223;50.862;4.360;2022-08-18T00:19:23;20.70;99.90
20125;DHT22;10223;50.862;4.360;2022-08-18T00:21:51;20.60;99.90
20125;DHT22;10223;50.862;4.360;2022-08-18T00:24:18;20.60;99.90
20125;DHT22;10223;50.862;4.360;2022-08-18T00:26:45;20.50;99.90
20125;DHT22;10223;50.862;4.360;2022-08-18T00:29:13;20.40;99.90
20125;DHT22;10223;50.862;4.360;2022-08-18T00:31:40;20.50;99.90
20125;DHT22;10223;50.862;4.360;2022-08-18T00:34:07;20.50;99.90
20125;DHT22;10223;50.862;4.360;2022-08-18T00:36:34;20.50;99.90
20125;DHT22;10223;50.862;4.360;2022-08-18T00:39:02;20.40;99.90
20125;DHT22;10223;50.862;4.360;2022-08-18T00:41:29;20.30;99.90
20125;DHT22;10223;50.862;4.360;2022-08-18T00:43:56;20.40;99.90
20125;DHT22;10223;50.862;4.360;2022-08-18T00:46:27;20.30;99.90
20125;DHT22;10223;50.862;4.360;2022-08-18T00:48:54;20.30;99.90
20125;DHT22;10223;50.862;4.360;2022-08-18T00:51:25;20.30;99.90
20125;DHT22;10223;50.862;4.360;2022-08-18T00:53:57;20.50;99.90
20125;DHT22;10223;50.862;4.360;2022-08-18T00:56:30;20.40;99.90
20125;DHT22;10223;50.862;4.360;2022-08-18T00:59:03;20.20;99.90
20125;DHT22;10223;50.862;4.360;2022-08-18T01:01:32;20.40;99.90
20125;DHT22;10223;50.862;4.360;2022-08-18T01:04:04;20.40;99.90
20125;DHT22;10223;50.862;4.360;2022-08-18T01:06:36;20.20;99.90
20125;DHT22;10223;50.862;4.360;2022-08-18T01:09:05;20.10;99.90
20125;DHT22;10223;50.862;4.360;2022-08-18T01:11:35;20.10;99.90
20125;DHT22;10223;50.862;4.360;2022-08-18T01:14:03;20.10;99.90
20125;DHT22;10223;50.862;4.360;2022-08-18T01:16:30;20.30;99.90
20125;DHT22;10223;50.862;4.360;2022-08-18T01:19:15;20.40;99.90
20125;DHT22;10223;50.862;4.360;2022-08-18T01:22:04;20.20;99.90
20125;DHT22;10223;50.862;4.360;2022-08-18T01:24:36;20.00;99.90
20125;DHT22;10223;50.862;4.360;2022-08-18T01:27:20;20.00;99.90
20125;DHT22;10223;50.862;4.360;2022-08-18T01:29:49;20.20;99.90
20125;DHT22;10223;50.862;4.360;2022-08-18T01:32:18;20.20;99.90
20125;DHT22;10223;50.862;4.360;2022-08-18T01:34:46;20.30;99.90
20125;DHT22;10223;50.862;4.360;2022-08-18T01:37:18;20.40;99.90
20125;DHT22;10223;50.862;4.360;2022-08-18T01:39:47;20.30;99.90
20125;DHT22;10223;50.862;4.360;2022-08-18T01:42:15;20.20;99.90
20125;DHT22;10223;50.862;4.360;2022-08-18T01:44:43;20.10;99.90
20125;DHT22;10223;50.862;4.360;2022-08-18T01:47:11;20.10;99.90
20125;DHT22;10223;50.862;4.360;2022-08-18T01:49:39;20.00;99.90
20125;DHT22;10223;50.862;4.360;2022-08-18T01:52:08;19.90;99.90
20125;DHT22;10223;50.862;4.360;2022-08-18T01:54:36;20.10;99.90
20125;DHT22;10223;50.862;4.360;2022-08-18T01:57:05;20.30;99.90
20125;DHT22;10223;50.862;4.360;2022-08-18T01:59:31;20.50;99.90
20125;DHT22;10223;50.862;4.360;2022-08-18T02:02:00;20.70;99.90
20125;DHT22;10223;50.862;4.360;2022-08-18T02:04:29;20.90;99.90
20125;DHT22;10223;50.862;4.360;2022-08-18T02:06:58;21.00;99.90
20125;DHT22;10223;50.862;4.360;2022-08-18T02:09:26;20.90;99.90
20125;DHT22;10223;50.862;4.360;2022-08-18T02:11:53;20.70;99.90
20125;DHT22;10223;50.862;4.360;2022-08-18T02:14:22;20.50;99.90
20125;DHT22;10223;50.862;4.360;2022-08-18T02:16:49;20.40;99.90
20125;DHT22;10223;50.862;4.360;2022-08-18T02:19:16;20.30;99.90
20125;DHT22;10223;50.862;4.360;2022-08-18T02:21:43;20.30;99.90
20125;DHT22;10223;50.862;4.360;2022-08-18T02:24:09;20.30;99.90
20125;DHT22;10223;50.862;4.360;2022-08-18T02:26:36;20.30;99.90
20125;DHT22;10223;50.862;4.360;2022-08-18T02:29:03;20.40;99.90
20125;DHT22;10223;50.862;4.360;2022-08-18T02:31:31;20.70;99.90
20125;DHT22;10223;50.862;4.360;2022-08-18T02:33:58;20.70;99.90
20125;DHT22;10223;50.862;4.360;2022-08-18T02:36:25;20.70;99.90
20125;DHT22;10223;50.862;4.360;2022-08-18T02:38:53;20.70;99.90
20125;DHT22;10223;50.862;4.360;2022-08-18T02:41:20;20.80;99.90
20125;DHT22;10223;50.862;4.360;2022-08-18T02:43:47;20.60;99.90
20125;DHT22;10223;50.862;4.360;2022-08-18T02:46:14;20.60;99.90
20125;DHT22;10223;50.862;4.360;2022-08-18T02:48:42;20.70;99.90
20125;DHT22;10223;50.862;4.360;2022-08-18T02:51:11;21.00;99.90
20125;DHT22;10223;50.862;4.360;2022-08-18T02:53:39;21.20;99.90
20125;DHT22;10223;50.862;4.360;2022-08-18T02:56:09;21.50;99.90
20125;DHT22;10223;50.862;4.360;2022-08-18T02:58:45;21.50;99.90
20125;DHT22;10223;50.862;4.360;2022-08-18T03:01:12;21.50;99.90
20125;DHT22;10223;50.862;4.360;2022-08-18T03:03:39;21.60;99.90
20125;DHT22;10223;50.862;4.360;2022-08-18T03:06:08;21.50;99.90
20125;DHT22;10223;50.862;4.360;2022-08-18T03:08:34;21.50;99.90
20125;DHT22;10223;50.862;4.360;2022-08-18T03:11:01;21.30;99.90
20125;DHT22;10223;50.862;4.360;2022-08-18T03:13:28;21.30;99.90
20125;DHT22;10223;50.862;4.360;2022-08-18T03:15:56;21.40;99.90
20125;DHT22;10223;50.862;4.360;2022-08-18T03:18:23;21.50;99.90
20125;DHT22;10223;50.862;4.360;2022-08-18T03:20:49;21.50;99.90
20125;DHT22;10223;50.862;4.360;2022-08-18T03:23:18;21.50;99.90
20125;DHT22;10223;50.862;4.360;2022-08-18T03:25:46;21.40;99.90
20125;DHT22;10223;50.862;4.360;2022-08-18T03:28:14;21.00;99.90
20125;DHT22;10223;50.862;4.360;2022-08-18T03:30:42;20.60;99.90
20125;DHT22;10223;50.862;4.360;2022-08-18T03:33:09;20.50;99.90
20125;DHT22;10223;50.862;4.360;2022-08-18T03:35:36;20.30;99.90
20125;DHT22;10223;50.862;4.360;2022-08-18T03:38:03;20.30;99.90
20125;DHT22;10223;50.862;4.360;2022-08-18T03:40:32;20.30;99.90
20125;DHT22;10223;50.862;4.360;2022-08-18T03:43:02;20.50;99.90
20125;DHT22;10223;50.862;4.360;2022-08-18T03:45:32;20.60;99.90
20125;DHT22;10223;50.862;4.360;2022-08-18T03:47:59;20.40;99.90
20125;DHT22;10223;50.862;4.360;2022-08-18T03:50:26;20.30;99.90
20125;DHT22;10223;50.862;4.360;2022-08-18T03:52:53;20.40;99.90
20125;DHT22;10223;50.862;4.360;2022-08-18T03:55:24;20.30;99.90
20125;DHT22;10223;50.862;4.360;2022-08-18T03:57:57;20.00;99.90
20125;DHT22;10223;50.862;4.360;2022-08-18T04:00:23;20.00;99.90
20125;DHT22;10223;50.862;4.360;2022-08-18T04:02:51;20.00;99.90
20125;DHT22;10223;50.862;4.360;2022-08-18T04:05:18;19.90;99.90
20125;DHT22;10223;50.862;4.360;2022-08-18T04:07:45;19.80;99.90
20125;DHT22;10223;50.862;4.360;2022-08-18T04:10:12;19.80;99.90
20125;DHT22;10223;50.862;4.360;2022-08-18T04:12:40;19.90;99.90
20125;DHT22;10223;50.862;4.360;2022-08-18T04:15:09;19.90;99.90
20125;DHT22;10223;50.862;4.360;2022-08-18T04:17:37;20.00;99.90
20125;DHT22;10223;50.862;4.360;2022-08-18T04:20:05;20.10;99.90
20125;DHT22;10223;50.862;4.360;2022-08-18T04:22:32;20.20;99.90
20125;DHT22;10223;50.862;4.360;2022-08-18T04:24:59;20.30;99.90
20125;DHT22;10223;50.862;4.360;2022-08-18T04:27:27;20.20;99.90
20125;DHT22;10223;50.862;4.360;2022-08-18T04:29:54;20.20;99.90
20125;DHT22;10223;50.862;4.360;2022-08-18T04:32:24;20.30;99.90
20125;DHT22;10223;50.862;4.360;2022-08-18T04:34:51;20.60;99.90
20125;DHT22;10223;50.862;4.360;2022-08-18T04:37:18;20.70;99.90
20125;DHT22;10223;50.862;4.360;2022-08-18T04:39:45;20.80;99.90
20125;DHT22;10223;50.862;4.360;2022-08-18T04:42:13;20.70;99.90
20125;DHT22;10223;50.862;4.360;2022-08-18T04:44:40;20.50;99.90
20125;DHT22;10223;50.862;4.360;2022-08-18T04:47:08;20.30;99.90
20125;DHT22;10223;50.862;4.360;2022-08-18T04:49:36;20.40;99.90
20125;DHT22;10223;50.862;4.360;2022-08-18T04:52:04;20.50;99.90
20125;DHT22;10223;50.862;4.360;2022-08-18T04:54:50;20.60;99.90
20125;DHT22;10223;50.862;4.360;2022-08-18T04:57:18;20.50;99.90
20125;DHT22;10223;50.862;4.360;2022-08-18T04:59:48;20.50;99.90
20125;DHT22;10223;50.862;4.360;2022-08-18T05:02:16;20.60;99.90
20125;DHT22;10223;50.862;4.360;2022-08-18T05:04:45;20.50;99.90
20125;DHT22;10223;50.862;4.360;2022-08-18T05:07:15;20.50;99.90
20125;DHT22;10223;50.862;4.360;2022-08-18T05:09:43;20.50;99.90
20125;DHT22;10223;50.862;4.360;2022-08-18T05:12:12;20.60;99.90
20125;DHT22;10223;50.862;4.360;2022-08-18T05:14:39;20.60;99.90
20125;DHT22;10223;50.862;4.360;2022-08-18T05:17:07;20.50;99.90
20125;DHT22;10223;50.862;4.360;2022-08-18T05:19:33;20.30;99.90
20125;DHT22;10223;50.862;4.360;2022-08-18T05:22:02;20.40;99.90
20125;DHT22;10223;50.862;4.360;2022-08-18T05:24:30;20.40;99.90
20125;DHT22;10223;50.862;4.360;2022-08-18T05:26:59;20.50;99.90
20125;DHT22;10223;50.862;4.360;2022-08-18T05:29:28;20.40;99.90
20125;DHT22;10223;50.862;4.360;2022-08-18T05:32:00;20.50;99.90
20125;DHT22;10223;50.862;4.360;2022-08-18T05:34:28;20.40;99.90
20125;DHT22;10223;50.862;4.360;2022-08-18T05:37:05;20.30;99.90
20125;DHT22;10223;50.862;4.360;2022-08-18T05:39:38;20.30;99.90
20125;DHT22;10223;50.862;4.360;2022-08-18T05:42:07;20.40;99.90
20125;DHT22;10223;50.862;4.360;2022-08-18T05:44:41;20.60;99.90
20125;DHT22;10223;50.862;4.360;2022-08-18T05:47:12;20.50;99.90
20125;DHT22;10223;50.862;4.360;2022-08-18T05:49:42;20.50;99.90
20125;DHT22;10223;50.862;4.360;2022-08-18T05:52:15;20.50;99.90
20125;DHT22;10223;50.862;4.360;2022-08-18T05:54:47;20.60;99.90
20125;DHT22;10223;50.862;4.360;2022-08-18T05:57:39;20.70;99.90
20125;DHT22;10223;50.862;4.360;2022-08-18T06:00:08;20.60;99.90
20125;DHT22;10223;50.862;4.360;2022-08-18T06:02:41;20.40;99.90
20125;DHT22;10223;50.862;4.360;2022-08-18T06:05:14;20.40;99.90
20125;DHT22;10223;50.862;4.360;2022-08-18T06:07:50;20.60;99.90
20125;DHT22;10223;50.862;4.360;2022-08-18T06:10:18;20.50;99.90
20125;DHT22;10223;50.862;4.360;2022-08-18T06:12:48;20.50;99.90
20125;DHT22;10223;50.862;4.360;2022-08-18T06:15:19;20.30;99.90
20125;DHT22;10223;50.862;4.360;2022-08-18T06:18:11;20.30;99.90
20125;DHT22;10223;50.862;4.360;2022-08-18T06:21:01;20.40;99.90
20125;DHT22;10223;50.862;4.360;2022-08-18T06:23:41;20.30;99.90
20125;DHT22;10223;50.862;4.360;2022-08-18T06:26:18;20.30;99.90
20125;DHT22;10223;50.862;4.360;2022-08-18T06:28:57;20.30;99.90
20125;DHT22;10223;50.862;4.360;2022-08-18T06:31:35;20.40;99.90
20125;DHT22;10223;50.862;4.360;2022-08-18T06:34:13;20.50;99.90
20125;DHT22;10223;50.862;4.360;2022-08-18T06:36:49;20.60;99.90
20125;DHT22;10223;50.862;4.360;2022-08-18T06:39:23;20.70;99.90
20125;DHT22;10223;50.862;4.360;2022-08-18T06:41:52;20.70;99.90
20125;DHT22;10223;50.862;4.360;2022-08-18T06:44:24;20.70;99.90
20125;DHT22;10223;50.862;4.360;2022-08-18T06:46:58;20.60;99.90
20125;DHT22;10223;50.862;4.360;2022-08-18T06:49:38;20.60;99.90
20125;DHT22;10223;50.862;4.360;2022-08-18T06:52:21;20.70;99.90
20125;DHT22;10223;50.862;4.360;2022-08-18T06:54:53;20.70;99.90
20125;DHT22;10223;50.862;4.360;2022-08-18T06:57:24;20.70;99.90
20125;DHT22;10223;50.862;4.360;2022-08-18T06:59:57;20.70;99.90
20125;DHT22;10223;50.862;4.360;2022-08-18T07:05:21;20.90;99.90
20125;DHT22;10223;50.862;4.360;2022-08-18T07:08:13;20.80;99.90
20125;DHT22;10223;50.862;4.360;2022-08-18T07:10:43;20.80;99.90
20125;DHT22;10223;50.862;4.360;2022-08-18T07:13:20;20.90;99.90
20125;DHT22;10223;50.862;4.360;2022-08-18T07:15:48;21.10;99.90
20125;DHT22;10223;50.862;4.360;2022-08-18T07:18:22;21.10;99.90
20125;DHT22;10223;50.862;4.360;2022-08-18T07:20:58;21.20;99.90
20125;DHT22;10223;50.862;4.360;2022-08-18T07:23:30;21.70;99.90
20125;DHT22;10223;50.862;4.360;2022-08-18T07:26:04;22.40;99.90
20125;DHT22;10223;50.862;4.360;2022-08-18T07:28:33;22.80;99.90
20125;DHT22;10223;50.862;4.360;2022-08-18T07:31:16;23.10;99.90
20125;DHT22;10223;50.862;4.360;2022-08-18T07:33:51;23.70;99.90
20125;DHT22;10223;50.862;4.360;2022-08-18T07:36:26;24.20;99.90
20125;DHT22;10223;50.862;4.360;2022-08-18T07:38:59;24.80;99.90
20125;DHT22;10223;50.862;4.360;2022-08-18T07:41:33;25.20;99.90
20125;DHT22;10223;50.862;4.360;2022-08-18T07:44:09;25.10;99.90
20125;DHT22;10223;50.862;4.360;2022-08-18T07:46:45;24.80;99.90
20125;DHT22;10223;50.862;4.360;2022-08-18T07:49:17;24.70;99.90
20125;DHT22;10223;50.862;4.360;2022-08-18T07:51:47;24.90;99.90
20125;DHT22;10223;50.862;4.360;2022-08-18T07:54:23;25.00;99.90
20125;DHT22;10223;50.862;4.360;2022-08-18T07:57:00;25.10;99.90
20125;DHT22;10223;50.862;4.360;2022-08-18T07:59:33;25.00;99.90
20125;DHT22;10223;50.862;4.360;2022-08-18T08:02:16;25.20;99.90
20125;DHT22;10223;50.862;4.360;2022-08-18T08:04:48;25.10;99.90
20125;DHT22;10223;50.862;4.360;2022-08-18T08:07:22;24.90;99.90
20125;DHT22;10223;50.862;4.360;2022-08-18T08:09:55;24.90;99.90
20125;DHT22;10223;50.862;4.360;2022-08-18T08:12:35;24.90;99.90
20125;DHT22;10223;50.862;4.360;2022-08-18T08:15:11;24.70;99.90
20125;DHT22;10223;50.862;4.360;2022-08-18T08:17:46;25.20;99.90
20125;DHT22;10223;50.862;4.360;2022-08-18T08:20:23;25.30;99.90
20125;DHT22;10223;50.862;4.360;2022-08-18T08:23:07;25.30;99.90
20125;DHT22;10223;50.862;4.360;2022-08-18T08:25:46;25.40;99.90
20125;DHT22;10223;50.862;4.360;2022-08-18T08:28:27;25.80;99.90
20125;DHT22;10223;50.862;4.360;2022-08-18T08:31:03;25.80;99.90
20125;DHT22;10223;50.862;4.360;2022-08-18T08:33:37;25.80;99.90
20125;DHT22;10223;50.862;4.360;2022-08-18T08:36:12;26.10;99.90
20125;DHT22;10223;50.862;4.360;2022-08-18T08:38:45;26.60;99.90
20125;DHT22;10223;50.862;4.360;2022-08-18T08:41:22;26.80;99.90
20125;DHT22;10223;50.862;4.360;2022-08-18T08:44:02;26.70;99.90
20125;DHT22;10223;50.862;4.360;2022-08-18T08:46:35;26.80;99.90
20125;DHT22;10223;50.862;4.360;2022-08-18T08:49:18;26.90;99.90
20125;DHT22;10223;50.862;4.360;2022-08-18T08:51:49;27.20;99.90
20125;DHT22;10223;50.862;4.360;2022-08-18T08:54:25;27.50;99.90
20125;DHT22;10223;50.862;4.360;2022-08-18T08:56:54;27.70;99.90
20125;DHT22;10223;50.862;4.360;2022-08-18T08:59:26;27.70;99.90
20125;DHT22;10223;50.862;4.360;2022-08-18T09:02:01;27.60;99.90
20125;DHT22;10223;50.862;4.360;2022-08-18T09:04:42;27.60;99.90
20125;DHT22;10223;50.862;4.360;2022-08-18T09:07:22;27.90;99.90
20125;DHT22;10223;50.862;4.360;2022-08-18T09:13:32;28.40;99.90
20125;DHT22;10223;50.862;4.360;2022-08-18T09:16:12;28.10;99.90
20125;DHT22;10223;50.862;4.360;2022-08-18T09:18:49;27.90;99.90
20125;DHT22;10223;50.862;4.360;2022-08-18T09:21:25;27.00;99.90
20125;DHT22;10223;50.862;4.360;2022-08-18T09:24:07;26.80;99.90
20125;DHT22;10223;50.862;4.360;2022-08-18T09:26:42;26.40;99.90
20125;DHT22;10223;50.862;4.360;2022-08-18T09:29:19;26.20;99.90
20125;DHT22;10223;50.862;4.360;2022-08-18T09:35:11;25.40;99.90
20125;DHT22;10223;50.862;4.360;2022-08-18T09:37:46;25.30;99.90
20125;DHT22;10223;50.862;4.360;2022-08-18T09:40:35;25.70;99.90
20125;DHT22;10223;50.862;4.360;2022-08-18T09:43:32;25.90;99.90
20125;DHT22;10223;50.862;4.360;2022-08-18T09:46:06;26.30;99.90
20125;DHT22;10223;50.862;4.360;2022-08-18T09:48:40;26.10;99.90
20125;DHT22;10223;50.862;4.360;2022-08-18T09:51:33;26.40;99.90
20125;DHT22;10223;50.862;4.360;2022-08-18T09:54:21;26.30;99.90
20125;DHT22;10223;50.862;4.360;2022-08-18T09:57:15;26.20;99.90
20125;DHT22;10223;50.862;4.360;2022-08-18T10:03:17;26.20;99.90
20125;DHT22;10223;50.862;4.360;2022-08-18T10:06:02;26.30;99.90
20125;DHT22;10223;50.862;4.360;2022-08-18T10:11:42;26.20;99.90
20125;DHT22;10223;50.862;4.360;2022-08-18T10:14:35;26.00;99.90
20125;DHT22;10223;50.862;4.360;2022-08-18T10:17:15;26.10;99.90
20125;DHT22;10223;50.862;4.360;2022-08-18T10:19:58;26.40;99.90
20125;DHT22;10223;50.862;4.360;2022-08-18T10:22:38;26.60;99.90
20125;DHT22;10223;50.862;4.360;2022-08-18T10:25:07;26.50;99.90
20125;DHT22;10223;50.862;4.360;2022-08-18T10:27:48;26.90;99.90
20125;DHT22;10223;50.862;4.360;2022-08-18T10:30:47;27.20;99.90
20125;DHT22;10223;50.862;4.360;2022-08-18T10:33:59;26.70;99.90
20125;DHT22;10223;50.862;4.360;2022-08-18T10:36:40;26.30;99.90
20125;DHT22;10223;50.862;4.360;2022-08-18T10:39:13;26.00;99.90
20125;DHT22;10223;50.862;4.360;2022-08-18T10:42:01;26.30;99.90
20125;DHT22;10223;50.862;4.360;2022-08-18T10:44:31;26.80;99.90
20125;DHT22;10223;50.862;4.360;2022-08-18T10:47:02;26.60;99.90
20125;DHT22;10223;50.862;4.360;2022-08-18T10:49:30;26.20;99.90
20125;DHT22;10223;50.862;4.360;2022-08-18T10:55:26;26.00;99.90
20125;DHT22;10223;50.862;4.360;2022-08-18T10:58:11;26.10;99.90
20125;DHT22;10223;50.862;4.360;2022-08-18T11:00:50;26.60;99.90
20125;DHT22;10223;50.862;4.360;2022-08-18T11:03:33;26.90;99.90
20125;DHT22;10223;50.862;4.360;2022-08-18T11:06:07;27.50;99.90
20125;DHT22;10223;50.862;4.360;2022-08-18T11:08:46;27.90;99.90
20125;DHT22;10223;50.862;4.360;2022-08-18T11:11:20;27.20;99.90
20125;DHT22;10223;50.862;4.360;2022-08-18T11:13:59;27.20;99.90
20125;DHT22;10223;50.862;4.360;2022-08-18T11:16:39;27.30;99.90
20125;DHT22;10223;50.862;4.360;2022-08-18T11:19:09;27.40;99.90
20125;DHT22;10223;50.862;4.360;2022-08-18T11:21:41;27.30;99.90
20125;DHT22;10223;50.862;4.360;2022-08-18T11:24:12;27.20;99.90
20125;DHT22;10223;50.862;4.360;2022-08-18T11:26:43;26.90;99.90
20125;DHT22;10223;50.862;4.360;2022-08-18T11:29:32;27.10;99.90
20125;DHT22;10223;50.862;4.360;2022-08-18T11:32:04;27.20;99.90
20125;DHT22;10223;50.862;4.360;2022-08-18T11:34:37;27.10;99.90
20125;DHT22;10223;50.862;4.360;2022-08-18T11:37:07;27.00;99.90
20125;DHT22;10223;50.862;4.360;2022-08-18T11:39:42;27.50;99.90
20125;DHT22;10223;50.862;4.360;2022-08-18T11:42:14;27.70;99.90
20125;DHT22;10223;50.862;4.360;2022-08-18T11:44:41;27.70;99.90
20125;DHT22;10223;50.862;4.360;2022-08-18T11:47:13;27.30;99.90
20125;DHT22;10223;50.862;4.360;2022-08-18T11:49:51;27.20;99.90
20125;DHT22;10223;50.862;4.360;2022-08-18T11:52:22;27.60;99.90
20125;DHT22;10223;50.862;4.360;2022-08-18T11:54:50;27.50;99.90
20125;DHT22;10223;50.862;4.360;2022-08-18T11:57:41;27.80;99.90
20125;DHT22;10223;50.862;4.360;2022-08-18T12:00:39;27.80;99.90
20125;DHT22;10223;50.862;4.360;2022-08-18T12:03:11;28.30;99.90
20125;DHT22;10223;50.862;4.360;2022-08-18T12:05:46;29.20;99.90
20125;DHT22;10223;50.862;4.360;2022-08-18T12:08:24;29.10;99.90
20125;DHT22;10223;50.862;4.360;2022-08-18T12:11:04;28.10;99.90
20125;DHT22;10223;50.862;4.360;2022-08-18T12:13:34;28.00;99.90
20125;DHT22;10223;50.862;4.360;2022-08-18T12:16:10;28.00;99.90
20125;DHT22;10223;50.862;4.360;2022-08-18T12:18:37;27.90;99.90
20125;DHT22;10223;50.862;4.360;2022-08-18T12:21:05;27.70;99.90
20125;DHT22;10223;50.862;4.360;2022-08-18T12:23:33;27.90;99.90
20125;DHT22;10223;50.862;4.360;2022-08-18T12:26:00;27.80;99.90
20125;DHT22;10223;50.862;4.360;2022-08-18T12:28:27;27.80;99.90
20125;DHT22;10223;50.862;4.360;2022-08-18T12:30:55;28.00;99.90
20125;DHT22;10223;50.862;4.360;2022-08-18T12:33:22;27.70;99.90
20125;DHT22;10223;50.862;4.360;2022-08-18T12:35:49;27.60;99.90
20125;DHT22;10223;50.862;4.360;2022-08-18T12:38:16;28.20;99.90
20125;DHT22;10223;50.862;4.360;2022-08-18T12:40:43;28.10;99.90
20125;DHT22;10223;50.862;4.360;2022-08-18T12:43:11;28.20;99.90
20125;DHT22;10223;50.862;4.360;2022-08-18T12:45:38;27.80;99.90
20125;DHT22;10223;50.862;4.360;2022-08-18T12:48:07;28.20;99.90
20125;DHT22;10223;50.862;4.360;2022-08-18T12:50:35;28.10;99.90
20125;DHT22;10223;50.862;4.360;2022-08-18T12:53:05;28.00;99.90
20125;DHT22;10223;50.862;4.360;2022-08-18T12:55:36;27.70;99.90
20125;DHT22;10223;50.862;4.360;2022-08-18T12:58:03;28.00;99.90
20125;DHT22;10223;50.862;4.360;2022-08-18T13:00:31;28.10;99.90
20125;DHT22;10223;50.862;4.360;2022-08-18T13:02:58;27.80;99.90
20125;DHT22;10223;50.862;4.360;2022-08-18T13:05:26;27.90;99.90
20125;DHT22;10223;50.862;4.360;2022-08-18T13:07:53;28.10;99.90
20125;DHT22;10223;50.862;4.360;2022-08-18T13:10:23;28.60;99.90
20125;DHT22;10223;50.862;4.360;2022-08-18T13:12:49;28.60;99.90
20125;DHT22;10223;50.862;4.360;2022-08-18T13:15:17;28.20;99.90
20125;DHT22;10223;50.862;4.360;2022-08-18T13:17:44;27.90;99.90
20125;DHT22;10223;50.862;4.360;2022-08-18T13:20:13;28.30;99.90
20125;DHT22;10223;50.862;4.360;2022-08-18T13:22:42;28.20;99.90
20125;DHT22;10223;50.862;4.360;2022-08-18T13:25:12;28.10;99.90
20125;DHT22;10223;50.862;4.360;2022-08-18T13:27:39;28.30;99.90
20125;DHT22;10223;50.862;4.360;2022-08-18T13:30:09;28.70;99.90
20125;DHT22;10223;50.862;4.360;2022-08-18T13:32:36;29.40;99.90
20125;DHT22;10223;50.862;4.360;2022-08-18T13:35:03;30.40;99.90
20125;DHT22;10223;50.862;4.360;2022-08-18T13:37:30;30.10;99.90
20125;DHT22;10223;50.862;4.360;2022-08-18T13:39:59;29.80;99.90
20125;DHT22;10223;50.862;4.360;2022-08-18T13:42:26;30.20;99.90
20125;DHT22;10223;50.862;4.360;2022-08-18T13:44:54;30.30;99.90
20125;DHT22;10223;50.862;4.360;2022-08-18T13:47:21;30.90;99.90
20125;DHT22;10223;50.862;4.360;2022-08-18T13:49:48;30.60;99.90
20125;DHT22;10223;50.862;4.360;2022-08-18T13:52:16;30.60;99.90
20125;DHT22;10223;50.862;4.360;2022-08-18T13:54:43;29.50;99.90
20125;DHT22;10223;50.862;4.360;2022-08-18T13:57:12;29.00;99.90
20125;DHT22;10223;50.862;4.360;2022-08-18T13:59:39;29.10;99.90
20125;DHT22;10223;50.862;4.360;2022-08-18T14:02:08;28.90;99.90
20125;DHT22;10223;50.862;4.360;2022-08-18T14:04:36;29.00;99.90
20125;DHT22;10223;50.862;4.360;2022-08-18T14:07:05;29.40;99.90
20125;DHT22;10223;50.862;4.360;2022-08-18T14:09:34;29.40;99.90
20125;DHT22;10223;50.862;4.360;2022-08-18T14:12:02;29.00;99.90
20125;DHT22;10223;50.862;4.360;2022-08-18T14:14:31;29.20;99.90
20125;DHT22;10223;50.862;4.360;2022-08-18T14:16:58;29.70;99.90
20125;DHT22;10223;50.862;4.360;2022-08-18T14:19:25;29.60;99.90
20125;DHT22;10223;50.862;4.360;2022-08-18T14:22:10;29.20;99.90
20125;DHT22;10223;50.862;4.360;2022-08-18T14:24:54;28.70;99.90
20125;DHT22;10223;50.862;4.360;2022-08-18T14:27:40;29.20;99.90
20125;DHT22;10223;50.862;4.360;2022-08-18T14:30:11;29.20;99.90
20125;DHT22;10223;50.862;4.360;2022-08-18T14:32:39;29.30;99.90
20125;DHT22;10223;50.862;4.360;2022-08-18T14:35:08;29.60;99.90
20125;DHT22;10223;50.862;4.360;2022-08-18T14:37:35;29.90;99.90
20125;DHT22;10223;50.862;4.360;2022-08-18T14:40:03;30.50;99.90
20125;DHT22;10223;50.862;4.360;2022-08-18T14:42:30;31.10;99.90
20125;DHT22;10223;50.862;4.360;2022-08-18T14:44:57;31.30;99.90
20125;DHT22;10223;50.862;4.360;2022-08-18T14:47:26;31.40;99.90
20125;DHT22;10223;50.862;4.360;2022-08-18T14:49:53;30.60;99.90
20125;DHT22;10223;50.862;4.360;2022-08-18T14:52:21;30.90;99.90
20125;DHT22;10223;50.862;4.360;2022-08-18T14:54:49;30.60;99.90
20125;DHT22;10223;50.862;4.360;2022-08-18T14:57:16;30.70;99.90
20125;DHT22;10223;50.862;4.360;2022-08-18T14:59:45;30.40;99.90
20125;DHT22;10223;50.862;4.360;2022-08-18T15:02:12;30.30;99.90
20125;DHT22;10223;50.862;4.360;2022-08-18T15:04:41;29.60;99.90
20125;DHT22;10223;50.862;4.360;2022-08-18T15:07:09;29.90;99.90
20125;DHT22;10223;50.862;4.360;2022-08-18T15:09:36;30.30;99.90
20125;DHT22;10223;50.862;4.360;2022-08-18T15:12:03;30.00;99.90
20125;DHT22;10223;50.862;4.360;2022-08-18T15:14:31;29.60;99.90
20125;DHT22;10223;50.862;4.360;2022-08-18T15:17:00;29.10;99.90
20125;DHT22;10223;50.862;4.360;2022-08-18T15:19:27;29.20;99.90
20125;DHT22;10223;50.862;4.360;2022-08-18T15:21:55;28.90;99.90
20125;DHT22;10223;50.862;4.360;2022-08-18T15:24:43;29.00;99.90
20125;DHT22;10223;50.862;4.360;2022-08-18T15:27:31;29.30;99.90
20125;DHT22;10223;50.862;4.360;2022-08-18T15:30:03;29.20;99.90
20125;DHT22;10223;50.862;4.360;2022-08-18T15:32:30;28.80;99.90
20125;DHT22;10223;50.862;4.360;2022-08-18T15:34:57;28.60;99.90
20125;DHT22;10223;50.862;4.360;2022-08-18T15:37:26;28.30;99.90
20125;DHT22;10223;50.862;4.360;2022-08-18T15:39:59;28.60;99.90
20125;DHT22;10223;50.862;4.360;2022-08-18T15:42:26;28.90;99.90
20125;DHT22;10223;50.862;4.360;2022-08-18T15:44:54;28.50;99.90
20125;DHT22;10223;50.862;4.360;2022-08-18T15:47:21;28.10;99.90
20125;DHT22;10223;50.862;4.360;2022-08-18T15:49:49;27.80;99.90
20125;DHT22;10223;50.862;4.360;2022-08-18T15:52:16;27.70;99.90
20125;DHT22;10223;50.862;4.360;2022-08-18T15:54:44;27.80;99.90
20125;DHT22;10223;50.862;4.360;2022-08-18T15:57:11;28.10;99.90
20125;DHT22;10223;50.862;4.360;2022-08-18T15:59:41;27.80;99.90
20125;DHT22;10223;50.862;4.360;2022-08-18T16:02:09;27.60;99.90
20125;DHT22;10223;50.862;4.360;2022-08-18T16:04:36;27.40;99.90
20125;DHT22;10223;50.862;4.360;2022-08-18T16:07:07;27.60;99.90
20125;DHT22;10223;50.862;4.360;2022-08-18T16:09:34;27.60;99.90
20125;DHT22;10223;50.862;4.360;2022-08-18T16:12:05;27.60;99.90
20125;DHT22;10223;50.862;4.360;2022-08-18T16:14:36;27.40;99.90
20125;DHT22;10223;50.862;4.360;2022-08-18T16:17:03;27.30;99.90
20125;DHT22;10223;50.862;4.360;2022-08-18T16:19:30;27.40;99.90